地図

経路データ

SID SEASON NUMBER BASIN SUBBASIN NAME ISO_TIME NATURE LAT LON WMO_WIND WMO_PRES WMO_AGENCY TRACK_TYPE DIST2LAND LANDFALL IFLAG USA_AGENCY USA_ATCF_ID USA_LAT USA_LON USA_RECORD USA_STATUS USA_WIND USA_PRES USA_SSHS USA_R34_NE USA_R34_SE USA_R34_SW USA_R34_NW USA_R50_NE USA_R50_SE USA_R50_SW USA_R50_NW USA_R64_NE USA_R64_SE USA_R64_SW USA_R64_NW USA_POCI USA_ROCI USA_RMW USA_EYE TOKYO_LAT TOKYO_LON TOKYO_GRADE TOKYO_WIND TOKYO_PRES TOKYO_R50_DIR TOKYO_R50_LONG TOKYO_R50_SHORT TOKYO_R30_DIR TOKYO_R30_LONG TOKYO_R30_SHORT TOKYO_LAND CMA_LAT CMA_LON CMA_CAT CMA_WIND CMA_PRES HKO_LAT HKO_LON HKO_CAT HKO_WIND HKO_PRES NEWDELHI_LAT NEWDELHI_LON NEWDELHI_GRADE NEWDELHI_WIND NEWDELHI_PRES NEWDELHI_CI NEWDELHI_DP NEWDELHI_POCI REUNION_LAT REUNION_LON REUNION_TYPE REUNION_WIND REUNION_PRES REUNION_TNUM REUNION_CI REUNION_RMW REUNION_R34_NE REUNION_R34_SE REUNION_R34_SW REUNION_R34_NW REUNION_R50_NE REUNION_R50_SE REUNION_R50_SW REUNION_R50_NW REUNION_R64_NE REUNION_R64_SE REUNION_R64_SW REUNION_R64_NW BOM_LAT BOM_LON BOM_TYPE BOM_WIND BOM_PRES BOM_TNUM BOM_CI BOM_RMW BOM_R34_NE BOM_R34_SE BOM_R34_SW BOM_R34_NW BOM_R50_NE BOM_R50_SE BOM_R50_SW BOM_R50_NW BOM_R64_NE BOM_R64_SE BOM_R64_SW BOM_R64_NW BOM_ROCI BOM_POCI BOM_EYE BOM_POS_METHOD BOM_PRES_METHOD NADI_LAT NADI_LON NADI_CAT NADI_WIND NADI_PRES WELLINGTON_LAT WELLINGTON_LON WELLINGTON_WIND WELLINGTON_PRES DS824_LAT DS824_LON DS824_STAGE DS824_WIND DS824_PRES TD9636_LAT TD9636_LON TD9636_STAGE TD9636_WIND TD9636_PRES TD9635_LAT TD9635_LON TD9635_WIND TD9635_PRES TD9635_ROCI NEUMANN_LAT NEUMANN_LON NEUMANN_CLASS NEUMANN_WIND NEUMANN_PRES MLC_LAT MLC_LON MLC_CLASS MLC_WIND MLC_PRES USA_GUST BOM_GUST BOM_GUST_PER REUNION_GUST REUNION_GUST_PER USA_SEAHGT USA_SEARAD_NE USA_SEARAD_SE USA_SEARAD_SW USA_SEARAD_NW STORM_SPEED STORM_DIR
1932244N19296 1932 45 NA CS NOT_NAMED 1932-08-30 18:00:00 TS 18.8000 -63.6000 30 hurdat_atl main 215 181 O_____________ hurdat_atl AL041932 18.8000 -63.6000 TD 30 -1 9 303
1932244N19296 1932 45 NA NA NOT_NAMED 1932-08-30 21:00:00 TS 19.0477 -63.9998 main 181 161 P_____________ AL041932 19.0477 -63.9998 TD 30 -1 9 303
1932244N19296 1932 45 NA NA NOT_NAMED 1932-08-31 00:00:00 TS 19.3000 -64.4000 30 hurdat_atl main 161 149 O_____________ hurdat_atl AL041932 19.3000 -64.4000 TD 30 -1 9 304
1932244N19296 1932 45 NA NA NOT_NAMED 1932-08-31 03:00:00 TS 19.5574 -64.8001 main 158 153 P_____________ AL041932 19.5574 -64.8001 TD 32 -1 9 304
1932244N19296 1932 45 NA NA NOT_NAMED 1932-08-31 06:00:00 TS 19.8000 -65.2000 35 hurdat_atl main 162 159 O_____________ hurdat_atl AL041932 19.8000 -65.2000 TS 35 0 9 301
1932244N19296 1932 45 NA NA NOT_NAMED 1932-08-31 09:00:00 TS 20.0225 -65.6150 main 178 178 P_____________ AL041932 20.0225 -65.6150 TS 37 0 9 298
1932244N19296 1932 45 NA NA NOT_NAMED 1932-08-31 12:00:00 TS 20.2000 -66.0000 40 hurdat_atl main 201 201 O_____________ hurdat_atl AL041932 20.2000 -66.0000 TS 40 0 7 294
1932244N19296 1932 45 NA NA NOT_NAMED 1932-08-31 15:00:00 TS 20.3149 -66.3227 main 212 212 P_____________ AL041932 20.3149 -66.3227 TS 42 0 6 290
1932244N19296 1932 45 NA NA NOT_NAMED 1932-08-31 18:00:00 TS 20.4000 -66.6000 45 hurdat_atl main 223 223 O_____________ hurdat_atl AL041932 20.4000 -66.6000 TS 45 0 5 291
1932244N19296 1932 45 NA NA NOT_NAMED 1932-08-31 21:00:00 TS 20.5074 -66.8575 main 234 234 P_____________ AL041932 20.5074 -66.8575 TS 47 0 5 293
1932244N19296 1932 45 NA NA NOT_NAMED 1932-09-01 00:00:00 TS 20.6000 -67.1000 50 hurdat_atl main 246 243 O_____________ hurdat_atl AL041932 20.6000 -67.1000 TS 50 0 5 287
1932244N19296 1932 45 NA NA NOT_NAMED 1932-09-01 03:00:00 TS 20.6500 -67.3576 main 246 236 P_____________ AL041932 20.6500 -67.3576 TS 50 0 5 282
1932244N19296 1932 45 NA NA NOT_NAMED 1932-09-01 06:00:00 TS 20.7000 -67.6000 50 hurdat_atl main 236 229 O_____________ hurdat_atl AL041932 20.7000 -67.6000 TS 50 0 5 288
1932244N19296 1932 45 NA NA NOT_NAMED 1932-09-01 09:00:00 TS 20.7925 -67.8150 main 229 222 P_____________ AL041932 20.7925 -67.8150 TS 50 0 4 298
1932244N19296 1932 45 NA NA NOT_NAMED 1932-09-01 12:00:00 TS 20.9000 -68.0000 50 hurdat_atl main 224 218 O_____________ hurdat_atl AL041932 20.9000 -68.0000 TS 50 0 4 303
1932244N19296 1932 45 NA NA NOT_NAMED 1932-09-01 15:00:00 TS 21.0000 -68.1575 main 222 222 P_____________ AL041932 21.0000 -68.1575 TS 50 0 3 305
1932244N19296 1932 45 NA NA NOT_NAMED 1932-09-01 18:00:00 TS 21.1000 -68.3000 50 hurdat_atl main 226 222 O_____________ hurdat_atl AL041932 21.1000 -68.3000 TS 50 0 3 306
1932244N19296 1932 45 NA NA NOT_NAMED 1932-09-01 21:00:00 TS 21.2000 -68.4500 main 228 228 P_____________ AL041932 21.2000 -68.4500 TS 52 0 3 305
1932244N19296 1932 45 NA NA NOT_NAMED 1932-09-02 00:00:00 TS 21.3000 -68.6000 55 hurdat_atl main 235 232 O_____________ hurdat_atl AL041932 21.3000 -68.6000 TS 55 0 3 305
1932244N19296 1932 45 NA NA NOT_NAMED 1932-09-02 03:00:00 TS 21.4000 -68.7500 main 236 236 P_____________ AL041932 21.4000 -68.7500 TS 55 0 3 305
1932244N19296 1932 45 NA NA NOT_NAMED 1932-09-02 06:00:00 TS 21.5000 -68.9000 55 hurdat_atl main 241 236 O_____________ hurdat_atl AL041932 21.5000 -68.9000 TS 55 0 3 307
1932244N19296 1932 45 NA NA NOT_NAMED 1932-09-02 09:00:00 TS 21.5999 -69.0350 main 246 242 P_____________ AL041932 21.5999 -69.0350 TS 57 0 3 305
1932244N19296 1932 45 NA NA NOT_NAMED 1932-09-02 12:00:00 TS 21.7000 -69.2000 60 hurdat_atl main 249 245 O_____________ hurdat_atl AL041932 21.7000 -69.2000 TS 60 0 4 300
1932244N19296 1932 45 NA NA NOT_NAMED 1932-09-02 15:00:00 TS 21.8075 -69.4275 main 253 251 P_____________ AL041932 21.8075 -69.4275 TS 62 0 5 293
1932244N19296 1932 45 NA NA NOT_NAMED 1932-09-02 18:00:00 TS 21.9000 -69.7000 65 hurdat_atl main 252 242 O_____________ hurdat_atl AL041932 21.9000 -69.7000 HU 65 1 5 285
1932244N19296 1932 45 NA NA NOT_NAMED 1932-09-02 21:00:00 TS 21.9499 -69.9851 main 242 242 P_____________ AL041932 21.9499 -69.9851 HU 67 1 6 280
1932244N19296 1932 45 NA NA NOT_NAMED 1932-09-03 00:00:00 TS 22.0000 -70.3000 70 hurdat_atl main 247 246 O_____________ hurdat_atl AL041932 22.0000 -70.3000 HU 70 1 6 283
1932244N19296 1932 45 NA NA NOT_NAMED 1932-09-03 03:00:00 TS 22.0926 -70.6575 main 257 234 P_____________ AL041932 22.0926 -70.6575 HU 75 1 7 287
1932244N19296 1932 45 NA NA NOT_NAMED 1932-09-03 06:00:00 TS 22.2000 -71.0000 80 hurdat_atl main 234 214 O_____________ hurdat_atl AL041932 22.2000 -71.0000 HU 80 1 6 289
1932244N19296 1932 45 NA NA NOT_NAMED 1932-09-03 09:00:00 TS 22.2924 -71.2726 main 214 204 P_____________ AL041932 22.2924 -71.2726 HU 82 1 5 293
1932244N19296 1932 45 NA NA NOT_NAMED 1932-09-03 12:00:00 TS 22.4000 -71.5000 85 hurdat_atl main 204 197 O_____________ hurdat_atl AL041932 22.4000 -71.5000 HU 85 2 5 301
1932244N19296 1932 45 NA NA NOT_NAMED 1932-09-03 15:00:00 TS 22.5425 -71.7150 main 197 197 P_____________ AL041932 22.5425 -71.7150 HU 90 2 5 309
1932244N19296 1932 45 NA NA NOT_NAMED 1932-09-03 18:00:00 TS 22.7000 -71.9000 95 hurdat_atl main 202 196 O_____________ hurdat_atl AL041932 22.7000 -71.9000 HU 95 2 4 313
1932244N19296 1932 45 NA NA NOT_NAMED 1932-09-03 21:00:00 TS 22.8349 -72.0501 main 201 201 P_____________ AL041932 22.8349 -72.0501 HU 97 3 4 317
1932244N19296 1932 45 NA NA NOT_NAMED 1932-09-04 00:00:00 TS 23.0000 -72.2000 100 hurdat_atl main 217 217 O_____________ hurdat_atl AL041932 23.0000 -72.2000 HU 100 3 5 323
1932244N19296 1932 45 NA NA NOT_NAMED 1932-09-04 03:00:00 TS 23.2349 -72.3776 main 231 231 P_____________ AL041932 23.2349 -72.3776 HU 105 3 6 324
1932244N19296 1932 45 NA NA NOT_NAMED 1932-09-04 06:00:00 TS 23.5000 -72.6000 110 hurdat_atl main 260 260 O_____________ hurdat_atl AL041932 23.5000 -72.6000 HU 110 3 7 319
1932244N19296 1932 45 NA NA NOT_NAMED 1932-09-04 09:00:00 TS 23.7574 -72.8701 main 290 290 P_____________ AL041932 23.7574 -72.8701 HU 112 3 7 312
1932244N19296 1932 45 NA NA NOT_NAMED 1932-09-04 12:00:00 TS 24.0000 -73.2000 115 hurdat_atl main 313 313 O_____________ hurdat_atl AL041932 24.0000 -73.2000 HU 115 4 8 305
1932244N19296 1932 45 NA NA NOT_NAMED 1932-09-04 15:00:00 TS 24.2150 -73.5850 main 337 337 P_____________ AL041932 24.2150 -73.5850 HU 117 4 8 299
1932244N19296 1932 45 NA NA NOT_NAMED 1932-09-04 18:00:00 TS 24.4000 -74.0000 120 hurdat_atl main 366 333 O_____________ hurdat_atl AL041932 24.4000 -74.0000 HU 120 4 8 294
1932244N19296 1932 45 NA NA NOT_NAMED 1932-09-04 21:00:00 TS 24.5499 -74.4002 main 333 293 P_____________ AL041932 24.5499 -74.4002 HU 122 4 8 292
1932244N19296 1932 45 NA NA NOT_NAMED 1932-09-05 00:00:00 TS 24.7000 -74.8000 125 hurdat_atl main 293 256 O_____________ hurdat_atl AL041932 24.7000 -74.8000 HU 125 4 8 295
1932244N19296 1932 45 NA NA NOT_NAMED 1932-09-05 03:00:00 TS 24.8924 -75.2001 main 256 222 P_____________ AL041932 24.8924 -75.2001 HU 127 4 8 299
1932244N19296 1932 45 NA NA NOT_NAMED 1932-09-05 06:00:00 TS 25.1000 -75.6000 130 hurdat_atl main 222 193 O_____________ hurdat_atl AL041932 25.1000 -75.6000 HU 130 4 8 298
1932244N19296 1932 45 NA NA NOT_NAMED 1932-09-05 09:00:00 TS 25.2925 -76.0151 main 193 165 P_____________ AL041932 25.2925 -76.0151 HU 132 4 8 299
1932244N19296 1932 45 NA NA NOT_NAMED 1932-09-05 12:00:00 TS 25.5000 -76.4000 135 hurdat_atl main 165 146 O_____________ hurdat_atl AL041932 25.5000 -76.4000 HU 135 4 8 305
1932244N19296 1932 45 NA NA NOT_NAMED 1932-09-05 15:00:00 TS 25.7424 -76.7300 main 146 141 P_____________ AL041932 25.7424 -76.7300 HU 137 5 7 313
1932244N19296 1932 45 NA NA NOT_NAMED 1932-09-05 18:00:00 TS 26.0000 -77.0000 140 hurdat_atl main 141 141 O_____________ hurdat_atl AL041932 26.0000 -77.0000 HU 140 5 7 318
1932244N19296 1932 45 NA NA NOT_NAMED 1932-09-05 21:00:00 TS 26.2499 -77.2301 main 146 146 P_____________ AL041932 26.2499 -77.2301 HU 140 5 6 324
1932244N19296 1932 45 NA NA NOT_NAMED 1932-09-06 00:00:00 TS 26.5000 -77.4000 140 hurdat_atl main 167 167 O_____________ hurdat_atl AL041932 26.5000 -77.4000 HU 140 5 6 330
1932244N19296 1932 45 NA NA NOT_NAMED 1932-09-06 03:00:00 TS 26.7500 -77.5449 main 185 185 P_____________ AL041932 26.7500 -77.5449 HU 140 5 5 340
1932244N19296 1932 45 NA NA NOT_NAMED 1932-09-06 06:00:00 TS 27.0000 -77.6000 140 hurdat_atl main 215 215 O_____________ hurdat_atl AL041932 27.0000 -77.6000 HU 140 5 5 1
1932244N19296 1932 45 NA NA NOT_NAMED 1932-09-06 09:00:00 TS 27.2425 -77.5301 main 239 239 P_____________ AL041932 27.2425 -77.5301 HU 140 5 5 20
1932244N19296 1932 45 NA NA NOT_NAMED 1932-09-06 12:00:00 TS 27.5000 -77.4000 140 hurdat_atl main 268 268 O_____________ hurdat_atl AL041932 27.5000 -77.4000 HU 140 5 6 20
1932244N19296 1932 45 NA NA NOT_NAMED 1932-09-06 15:00:00 TS 27.7925 -77.3074 main 288 288 P_____________ AL041932 27.7925 -77.3074 HU 137 5 6 16
1932244N19296 1932 45 NA NA NOT_NAMED 1932-09-06 18:00:00 TS 28.1000 -77.2000 135 hurdat_atl main 310 310 O_____________ hurdat_atl AL041932 28.1000 -77.2000 HU 135 4 6 19
1932244N19296 1932 45 NA NA NOT_NAMED 1932-09-06 21:00:00 TS 28.4000 -77.0649 main 332 332 P_____________ AL041932 28.4000 -77.0649 HU 135 4 7 24
1932244N19296 1932 45 NA NA NOT_NAMED 1932-09-07 00:00:00 TS 28.7000 -76.9000 135 hurdat_atl main 351 351 O_____________ hurdat_atl AL041932 28.7000 -76.9000 HU 135 4 7 27
1932244N19296 1932 45 NA NA NOT_NAMED 1932-09-07 03:00:00 TS 29.0075 -76.7149 main 374 374 P_____________ AL041932 29.0075 -76.7149 HU 132 4 7 30
1932244N19296 1932 45 NA NA NOT_NAMED 1932-09-07 06:00:00 TS 29.3000 -76.5000 130 hurdat_atl main 399 399 O_____________ hurdat_atl AL041932 29.3000 -76.5000 HU 130 4 7 35
1932244N19296 1932 45 NA NA NOT_NAMED 1932-09-07 09:00:00 TS 29.5422 -76.2944 main 422 422 P_____________ AL041932 29.5422 -76.2944 HU 130 4 7 41
1932244N19296 1932 45 NA NA NOT_NAMED 1932-09-07 12:00:00 TS 29.8000 -76.0000 130 hurdat_atl main 459 459 O_____________ hurdat_atl AL041932 29.8000 -76.0000 HU 130 4 8 49
1932244N19296 1932 45 NA NA NOT_NAMED 1932-09-07 15:00:00 TS 30.0973 -75.5666 main 480 470 P_____________ AL041932 30.0973 -75.5666 HU 127 4 11 51
1932244N19296 1932 45 NA NA NOT_NAMED 1932-09-07 18:00:00 TS 30.5000 -75.0000 125 hurdat_atl main 472 456 O_____________ hurdat_atl AL041932 30.5000 -75.0000 HU 125 4 14 49
1932244N19296 1932 45 NA NA NOT_NAMED 1932-09-07 21:00:00 TS 31.0171 -74.3584 main 456 429 P_____________ AL041932 31.0171 -74.3584 HU 120 4 17 45
1932244N19296 1932 45 NA NA NOT_NAMED 1932-09-08 00:00:00 TS 31.7000 -73.6000 115 hurdat_atl main 429 419 O_____________ hurdat_atl AL041932 31.7000 -73.6000 HU 115 4 21 42
1932244N19296 1932 45 NA NA NOT_NAMED 1932-09-08 03:00:00 TS 32.5402 -72.7224 main 426 419 P_____________ AL041932 32.5402 -72.7224 HU 112 3 24 40
1932244N19296 1932 45 NA NA NOT_NAMED 1932-09-08 06:00:00 TS 33.5000 -71.8000 110 hurdat_atl main 423 423 O_____________ hurdat_atl AL041932 33.5000 -71.8000 HU 110 3 25 38
1932244N19296 1932 45 NA NA NOT_NAMED 1932-09-08 09:00:00 TS 34.5080 -70.8617 main 441 441 P_____________ AL041932 34.5080 -70.8617 HU 105 3 24 35
1932244N19296 1932 45 NA NA NOT_NAMED 1932-09-08 12:00:00 TS 35.5000 -70.1000 100 hurdat_atl main 487 486 O_____________ hurdat_atl AL041932 35.5000 -70.1000 HU 100 3 21 27
1932244N19296 1932 45 NA NA NOT_NAMED 1932-09-08 15:00:00 TS 36.3939 -69.6921 main 520 481 P_____________ AL041932 36.3939 -69.6921 HU 95 2 18 16
1932244N19296 1932 45 NA NA NOT_NAMED 1932-09-08 18:00:00 TS 37.2000 -69.5000 90 hurdat_atl main 481 415 O_____________ hurdat_atl AL041932 37.2000 -69.5000 HU 90 2 16 9
1932244N19296 1932 45 NA NA NOT_NAMED 1932-09-08 21:00:00 TS 37.9595 -69.3780 main 404 346 P_____________ AL041932 37.9595 -69.3780 HU 87 2 14 10
1932244N19296 1932 45 NA NA NOT_NAMED 1932-09-09 00:00:00 TS 38.6000 -69.2000 85 hurdat_atl main 346 306 O_____________ hurdat_atl AL041932 38.6000 -69.2000 HU 85 2 12 23
1932244N19296 1932 45 NA NA NOT_NAMED 1932-09-09 03:00:00 TS 39.0951 -68.7674 main 306 283 P_____________ AL041932 39.0951 -68.7674 HU 85 2 12 41
1932244N19296 1932 45 NA NA NOT_NAMED 1932-09-09 06:00:00 TS 39.5000 -68.2000 85 hurdat_atl main 287 275 O_____________ hurdat_atl AL041932 39.5000 -68.2000 HU 85 2 12 47
1932244N19296 1932 45 NA NA NOT_NAMED 1932-09-09 09:00:00 TS 39.8838 -67.6724 main 278 278 P_____________ AL041932 39.8838 -67.6724 HU 82 1 12 49
1932244N19296 1932 45 NA NA NOT_NAMED 1932-09-09 12:00:00 TS 40.3000 -67.0000 80 hurdat_atl main 295 295 O_____________ hurdat_atl AL041932 40.3000 -67.0000 HU 80 1 15 52
1932244N19296 1932 45 NA NA NOT_NAMED 1932-09-09 15:00:00 TS 40.8345 -66.0974 main 302 234 P_____________ AL041932 40.8345 -66.0974 HU 80 1 19 54
1932244N19296 1932 45 NA NA NOT_NAMED 1932-09-09 18:00:00 ET 41.4000 -65.0000 80 hurdat_atl main 234 211 O_____________ hurdat_atl AL041932 41.4000 -65.0000 EX 80 -4 21 58
1932244N19296 1932 45 NA NA NOT_NAMED 1932-09-09 21:00:00 ET 41.9468 -63.7145 main 220 216 P_____________ AL041932 41.9468 -63.7145 EX 77 -4 21 62
1932244N19296 1932 45 NA NA NOT_NAMED 1932-09-10 00:00:00 ET 42.4000 -62.5000 75 hurdat_atl main 239 235 O_____________ hurdat_atl AL041932 42.4000 -62.5000 EX 75 -4 17 64
1932244N19296 1932 45 NA NA NOT_NAMED 1932-09-10 03:00:00 ET 42.6853 -61.6642 main 239 238 P_____________ AL041932 42.6853 -61.6642 EX 75 -4 12 66
1932244N19296 1932 45 NA NA NOT_NAMED 1932-09-10 06:00:00 ET 42.9000 -61.0000 75 hurdat_atl main 242 231 O_____________ hurdat_atl AL041932 42.9000 -61.0000 EX 75 -4 11 65
1932244N19296 1932 45 NA NA NOT_NAMED 1932-09-10 09:00:00 ET 43.1649 -60.2626 main 231 228 P_____________ AL041932 43.1649 -60.2626 EX 72 -4 11 64
1932244N19296 1932 45 NA NA NOT_NAMED 1932-09-10 12:00:00 ET 43.4000 -59.6000 70 hurdat_atl main 232 232 O_____________ hurdat_atl AL041932 43.4000 -59.6000 EX 70 -4 10 65
1932244N19296 1932 45 NA NA NOT_NAMED 1932-09-10 15:00:00 ET 43.5795 -59.0545 main 238 238 P_____________ AL041932 43.5795 -59.0545 EX 70 -4 8 67
1932244N19296 1932 45 NA NA NOT_NAMED 1932-09-10 18:00:00 ET 43.7000 -58.6000 70 hurdat_atl main 254 254 O_____________ hurdat_atl AL041932 43.7000 -58.6000 EX 70 -4 7 74
1932244N19296 1932 45 NA NA NOT_NAMED 1932-09-10 21:00:00 ET 43.7572 -58.1844 main 264 264 P_____________ AL041932 43.7572 -58.1844 EX 67 -4 6 80
1932244N19296 1932 45 NA NA NOT_NAMED 1932-09-11 00:00:00 ET 43.8000 -57.8000 65 hurdat_atl main 286 286 O_____________ hurdat_atl AL041932 43.8000 -57.8000 EX 65 -4 6 80
1932244N19296 1932 45 NA NA NOT_NAMED 1932-09-11 03:00:00 ET 43.8547 -57.4140 main 299 299 P_____________ AL041932 43.8547 -57.4140 EX 65 -4 6 71
1932244N19296 1932 45 NA NA NOT_NAMED 1932-09-11 06:00:00 ET 44.0000 -57.0000 65 hurdat_atl main 314 297 O_____________ hurdat_atl AL041932 44.0000 -57.0000 EX 65 -4 7 55
1932244N19296 1932 45 NA NA NOT_NAMED 1932-09-11 09:00:00 ET 44.2662 -56.5870 main 286 234 P_____________ AL041932 44.2662 -56.5870 EX 62 -4 10 46
1932244N19296 1932 45 NA NA NOT_NAMED 1932-09-11 12:00:00 ET 44.7000 -56.0000 60 hurdat_atl main 234 180 O_____________ hurdat_atl AL041932 44.7000 -56.0000 EX 60 -4 14 46
1932244N19296 1932 45 NA NA NOT_NAMED 1932-09-11 15:00:00 ET 45.2661 -55.1460 main 172 76 P_____________ AL041932 45.2661 -55.1460 EX 60 -4 19 47
1932244N19296 1932 45 NA NA NOT_NAMED 1932-09-11 18:00:00 ET 46.0000 -54.0000 60 hurdat_atl main 73 11 O_____________ hurdat_atl AL041932 46.0000 -54.0000 EX 60 -4 23 48
1932244N19296 1932 45 NA NA NOT_NAMED 1932-09-11 21:00:00 ET 46.8303 -52.6433 main 30 30 P_____________ AL041932 46.8303 -52.6433 EX 60 -4 27 49
1932244N19296 1932 45 NA NA NOT_NAMED 1932-09-12 00:00:00 ET 47.8000 -51.0000 60 hurdat_atl main 123 123 O_____________ hurdat_atl AL041932 47.8000 -51.0000 EX 60 -4 31 49
1932244N19296 1932 45 NA NA NOT_NAMED 1932-09-12 03:00:00 ET 48.8854 -49.0755 main 285 285 P_____________ AL041932 48.8854 -49.0755 EX 57 -4 34 50
1932244N19296 1932 45 NA NA NOT_NAMED 1932-09-12 06:00:00 ET 50.0000 -47.0000 55 hurdat_atl main 464 464 O_____________ hurdat_atl AL041932 50.0000 -47.0000 EX 55 -4 34 51
1932244N19296 1932 45 NA NA NOT_NAMED 1932-09-12 09:00:00 ET 51.0378 -44.9083 main 637 637 P_____________ AL041932 51.0378 -44.9083 EX 55 -4 32 52
1932244N19296 1932 45 NA NA NOT_NAMED 1932-09-12 12:00:00 ET 52.0000 -43.0000 55 hurdat_atl main 794 794 O_____________ hurdat_atl AL041932 52.0000 -43.0000 EX 55 -4 28 49
1932244N19296 1932 45 NA NA NOT_NAMED 1932-09-12 15:00:00 ET 52.8842 -41.4206 main 804 728 P_____________ AL041932 52.8842 -41.4206 EX 55 -4 24 45
1932244N19296 1932 45 NA NA NOT_NAMED 1932-09-12 18:00:00 ET 53.7000 -40.2000 55 hurdat_atl main 729 668 O_____________ hurdat_atl AL041932 53.7000 -40.2000 EX 55 -4 20 39
1932244N19296 1932 45 NA NA NOT_NAMED 1932-09-12 21:00:00 ET 54.4771 -39.2597 main 660 606 P_____________ AL041932 54.4771 -39.2597 EX 52 -4 18 33
1932244N19296 1932 45 NA NA NOT_NAMED 1932-09-13 00:00:00 ET 55.2000 -38.5000 50 hurdat_atl main 606 568 O_____________ hurdat_atl AL041932 55.2000 -38.5000 EX 50 -4 17 33
1932244N19296 1932 45 NA NA NOT_NAMED 1932-09-13 03:00:00 ET 55.8642 -37.6533 main 561 540 P_____________ AL041932 55.8642 -37.6533 EX 50 -4 16 36
1932244N19296 1932 45 NA NA NOT_NAMED 1932-09-13 06:00:00 ET 56.5000 -36.8000 50 hurdat_atl main 540 521 O_____________ hurdat_atl AL041932 56.5000 -36.8000 EX 50 -4 16 36
1932244N19296 1932 45 NA NA NOT_NAMED 1932-09-13 09:00:00 ET 57.1333 -35.9529 main 526 520 P_____________ AL041932 57.1333 -35.9529 EX 50 -4 16 37
1932244N19296 1932 45 NA NA NOT_NAMED 1932-09-13 12:00:00 ET 57.8000 -35.0000 50 hurdat_atl main 526 525 O_____________ hurdat_atl AL041932 57.8000 -35.0000 EX 50 -4 18 40
1932244N19296 1932 45 NA NA NOT_NAMED 1932-09-13 15:00:00 ET 58.5203 -33.8000 main 553 553 P_____________ AL041932 58.5203 -33.8000 EX 50 -4 20 41
1932244N19296 1932 45 NA NA NOT_NAMED 1932-09-13 18:00:00 ET 59.3000 -32.5000 50 hurdat_atl main 588 588 O_____________ hurdat_atl AL041932 59.3000 -32.5000 EX 50 -4 20 39
1932244N19296 1932 45 NA NA NOT_NAMED 1932-09-13 21:00:00 ET 60.1104 -31.2767 main 604 496 P_____________ AL041932 60.1104 -31.2767 EX 50 -4 21 36
1932244N19296 1932 45 NA NA NOT_NAMED 1932-09-14 00:00:00 ET 61.0000 -30.0000 50 hurdat_atl main 484 363 O_____________ hurdat_atl AL041932 61.0000 -30.0000 EX 50 -4 23 35
1932244N19296 1932 45 NA NA NOT_NAMED 1932-09-14 03:00:00 ET 61.9772 -28.5341 main 353 239 P_____________ AL041932 61.9772 -28.5341 EX 50 -4 24 35
1932244N19296 1932 45 NA NA NOT_NAMED 1932-09-14 06:00:00 ET 63.0000 -27.0000 50 hurdat_atl main 230 126 O_____________ hurdat_atl AL041932 63.0000 -27.0000 EX 50 -4 24 33
1932244N19296 1932 45 NA NA NOT_NAMED 1932-09-14 09:00:00 ET 63.9934 -25.6224 main 115 14 P_____________ AL041932 63.9934 -25.6224 EX 50 -4 24 33
1932244N19296 1932 45 NA NA NOT_NAMED 1932-09-14 12:00:00 ET 65.0000 -24.0000 50 hurdat_atl main 21 0 O_____________ hurdat_atl AL041932 65.0000 -24.0000 EX 50 -4 26 39
1932244N19296 1932 45 NA NA NOT_NAMED 1932-09-14 15:00:00 ET 65.9955 -21.7778 main 0 0 P_____________ AL041932 65.9955 -21.7778 EX 50 -4 28 45
1932244N19296 1932 45 NA NA NOT_NAMED 1932-09-14 18:00:00 ET 67.0000 -19.0000 50 hurdat_atl main 99 99 O_____________ hurdat_atl AL041932 67.0000 -19.0000 EX 50 -4 31 50
1932244N19296 1932 45 NA NA NOT_NAMED 1932-09-14 21:00:00 ET 68.0127 -15.7094 main 176 176 P_____________ AL041932 68.0127 -15.7094 EX 50 -4 33 53
1932244N19296 1932 45 NA NA NOT_NAMED 1932-09-15 00:00:00 ET 69.0000 -12.0000 50 hurdat_atl main 323 323 O_____________ hurdat_atl AL041932 69.0000 -12.0000 EX 50 -4 33 54
1932244N19296 1932 45 NA NA NOT_NAMED 1932-09-15 03:00:00 ET 69.9508 -8.13458 main 496 496 P_____________ AL041932 69.9508 -8.13458 EX 50 -4 33 57
1932244N19296 1932 45 NA NA NOT_NAMED 1932-09-15 06:00:00 ET 70.8000 -4.00000 50 hurdat_atl main 626 626 O_____________ hurdat_atl AL041932 70.8000 -4.00000 EX 50 -4 32 61
1932244N19296 1932 45 NA NA NOT_NAMED 1932-09-15 09:00:00 ET 71.4904 0.438080 main 637 529 P_____________ AL041932 71.4904 0.438080 EX 50 -4 31 67
1932244N19296 1932 45 NA NA NOT_NAMED 1932-09-15 12:00:00 ET 72.0000 5.00000 50 hurdat_atl main 521 430 O_____________ hurdat_atl AL041932 72.0000 5.00000 EX 50 -4 29 73
1932244N19296 1932 45 NA NA NOT_NAMED 1932-09-15 15:00:00 ET 72.3326 9.59468 main 423 359 P_____________ AL041932 72.3326 9.59468 EX 50 -4 28 80
1932244N19296 1932 45 NA NA NOT_NAMED 1932-09-15 18:00:00 ET 72.5000 14.0000 50 hurdat_atl main 356 277 O_____________ hurdat_atl AL041932 72.5000 14.0000 EX 50 -4 26 85
1932244N19296 1932 45 NA NA NOT_NAMED 1932-09-15 21:00:00 ET 72.5470 18.2395 main 274 201 P_____________ AL041932 72.5470 18.2395 EX 50 -4 24 90
1932244N19296 1932 45 NA NA NOT_NAMED 1932-09-16 00:00:00 ET 72.5000 22.0000 50 hurdat_atl main 198 165 O_____________ hurdat_atl AL041932 72.5000 22.0000 EX 50 -4 21 94
1932244N19296 1932 45 NA NA NOT_NAMED 1932-09-16 03:00:00 ET 72.4162 25.2994 main 165 143 P_____________ AL041932 72.4162 25.2994 EX 50 -4 18 96
1932244N19296 1932 45 NA NA NOT_NAMED 1932-09-16 06:00:00 ET 72.3000 28.0000 50 hurdat_atl main 143 136 O_____________ hurdat_atl AL041932 72.3000 28.0000 EX 50 -4 15 99
1932244N19296 1932 45 NI AS NOT_NAMED 1932-09-16 09:00:00 ET 72.1672 30.2179 main 149 145 P_____________ AL041932 72.1672 30.2179 EX 50 -4 13 104
1932244N19296 1932 45 NI AS NOT_NAMED 1932-09-16 12:00:00 ET 72.0000 32.0000 main 160 160 O_____________ hurdat_atl AL041932 72.0000 32.0000 EX 50 -4 11 111
1932244N19296 1932 45 NI AS NOT_NAMED 1932-09-16 15:00:00 ET 71.7635 33.6501 main 179 171 P_____________ AL041932 71.7635 33.6501 EX 47 -4 11 118
1932244N19296 1932 45 NI AS NOT_NAMED 1932-09-16 18:00:00 ET 71.5000 35.0000 main 192 192 O_____________ hurdat_atl AL041932 71.5000 35.0000 EX 45 -4 9 123
1932244N19296 1932 45 NI AS NOT_NAMED 1932-09-16 21:00:00 ET 71.2487 36.1083 main 199 199 P_____________ AL041932 71.2487 36.1083 EX 42 -4 8 128
1932244N19296 1932 45 NI AS NOT_NAMED 1932-09-17 00:00:00 ET 71.0000 37.0000 main 203 187 O_____________ hurdat_atl AL041932 71.0000 37.0000 EX 40 -4 7 133
1932244N19296 1932 45 NI AS NOT_NAMED 1932-09-17 03:00:00 ET 70.7492 37.7842 main 182 174 P_____________ AL041932 70.7492 37.7842 EX 37 -4 7 135
1932244N19296 1932 45 NI AS NOT_NAMED 1932-09-17 06:00:00 ET 70.5000 38.5000 main 176 172 O_____________ hurdat_atl AL041932 70.5000 38.5000 EX 35 -4 7 136
1932244N19296 1932 45 NI AS NOT_NAMED 1932-09-17 09:00:00 ET 70.2497 39.2482 main 168 168 P_____________ AL041932 70.2497 39.2482 EX 35 -4 7 135
1932244N19296 1932 45 NI AS NOT_NAMED 1932-09-17 12:00:00 ET 70.0000 40.0000 main 171 166 O_____________ hurdat_atl AL041932 70.0000 40.0000 EX 35 -4 7 134
1932244N19296 1932 45 NI AS NOT_NAMED 1932-09-17 15:00:00 ET 69.7506 40.7535 main 172 129 P_____________ AL041932 69.7506 40.7535 EX 32 -4 7 134
1932244N19296 1932 45 NI AS NOT_NAMED 1932-09-17 18:00:00 ET 69.5000 41.5000 main 129 O_____________ hurdat_atl AL041932 69.5000 41.5000 EX 30 -4 7 134

IBTrACS Databaseについて

本データベースは、米国NOAAが公開する1842年以降の世界の熱帯低気圧のベストトラックデータアーカイブInternational Best Track Archive for Climate Stewardship (IBTrACS)を、ウェブで閲覧しやすい形式に変換したものです。

最終更新日:2021-10-08